sensor_id;sensor_type;location;lat;lon;timestamp;temperature;humidity
69225;DHT22;56333;51.306;17.056;2023-01-15T00:01:04;8.35;62.50
69225;DHT22;56333;51.306;17.056;2023-01-15T00:02:45;8.38;62.47
69225;DHT22;56333;51.306;17.056;2023-01-15T00:04:13;8.37;62.30
69225;DHT22;56333;51.306;17.056;2023-01-15T00:05:42;8.35;62.13
69225;DHT22;56333;51.306;17.056;2023-01-15T00:07:11;8.37;62.00
69225;DHT22;56333;51.306;17.056;2023-01-15T00:08:40;8.37;62.35
69225;DHT22;56333;51.306;17.056;2023-01-15T00:10:11;8.39;62.20
69225;DHT22;56333;51.306;17.056;2023-01-15T00:11:40;8.40;61.88
69225;DHT22;56333;51.306;17.056;2023-01-15T00:13:08;8.39;62.17
69225;DHT22;56333;51.306;17.056;2023-01-15T00:14:38;8.40;62.00
69225;DHT22;56333;51.306;17.056;2023-01-15T00:16:07;8.40;62.00
69225;DHT22;56333;51.306;17.056;2023-01-15T00:17:39;8.41;61.88
69225;DHT22;56333;51.306;17.056;2023-01-15T00:19:09;8.41;61.92
69225;DHT22;56333;51.306;17.056;2023-01-15T00:20:39;8.42;61.88
69225;DHT22;56333;51.306;17.056;2023-01-15T00:22:08;8.42;61.70
69225;DHT22;56333;51.306;17.056;2023-01-15T00:23:38;8.43;62.00
69225;DHT22;56333;51.306;17.056;2023-01-15T00:25:24;8.43;61.90
69225;DHT22;56333;51.306;17.056;2023-01-15T00:27:22;8.44;61.90
69225;DHT22;56333;51.306;17.056;2023-01-15T00:29:03;8.44;61.70
69225;DHT22;56333;51.306;17.056;2023-01-15T00:30:33;8.44;61.75
69225;DHT22;56333;51.306;17.056;2023-01-15T00:32:07;8.45;61.80
69225;DHT22;56333;51.306;17.056;2023-01-15T00:33:36;8.46;61.78
69225;DHT22;56333;51.306;17.056;2023-01-15T00:35:06;8.47;61.80
69225;DHT22;56333;51.306;17.056;2023-01-15T00:36:38;8.46;61.80
69225;DHT22;56333;51.306;17.056;2023-01-15T00:38:07;8.48;61.67
69225;DHT22;56333;51.306;17.056;2023-01-15T00:39:37;8.49;61.75
69225;DHT22;56333;51.306;17.056;2023-01-15T00:41:07;8.52;61.88
69225;DHT22;56333;51.306;17.056;2023-01-15T00:42:35;8.52;61.70
69225;DHT22;56333;51.306;17.056;2023-01-15T00:44:04;8.53;61.45
69225;DHT22;56333;51.306;17.056;2023-01-15T00:45:33;8.55;61.65
69225;DHT22;56333;51.306;17.056;2023-01-15T00:47:02;8.56;61.53
69225;DHT22;56333;51.306;17.056;2023-01-15T00:48:37;8.59;61.70
69225;DHT22;56333;51.306;17.056;2023-01-15T00:50:08;8.60;61.50
69225;DHT22;56333;51.306;17.056;2023-01-15T00:51:41;8.63;61.83
69225;DHT22;56333;51.306;17.056;2023-01-15T00:53:12;8.64;61.85
69225;DHT22;56333;51.306;17.056;2023-01-15T00:54:41;8.65;61.83
69225;DHT22;56333;51.306;17.056;2023-01-15T00:56:12;8.68;61.90
69225;DHT22;56333;51.306;17.056;2023-01-15T00:57:41;8.69;61.88
69225;DHT22;56333;51.306;17.056;2023-01-15T00:59:10;8.70;61.83
69225;DHT22;56333;51.306;17.056;2023-01-15T01:00:39;8.72;61.67
69225;DHT22;56333;51.306;17.056;2023-01-15T01:02:08;8.73;62.00
69225;DHT22;56333;51.306;17.056;2023-01-15T01:03:38;8.74;62.13
69225;DHT22;56333;51.306;17.056;2023-01-15T01:05:11;8.76;61.97
69225;DHT22;56333;51.306;17.056;2023-01-15T01:06:41;8.78;62.25
69225;DHT22;56333;51.306;17.056;2023-01-15T01:08:09;8.77;62.33
69225;DHT22;56333;51.306;17.056;2023-01-15T01:09:38;8.78;62.35
69225;DHT22;56333;51.306;17.056;2023-01-15T01:11:09;8.79;62.53
69225;DHT22;56333;51.306;17.056;2023-01-15T01:12:40;8.79;62.63
69225;DHT22;56333;51.306;17.056;2023-01-15T01:14:11;8.80;62.53
69225;DHT22;56333;51.306;17.056;2023-01-15T01:15:40;8.80;62.63
69225;DHT22;56333;51.306;17.056;2023-01-15T01:17:09;8.83;62.70
69225;DHT22;56333;51.306;17.056;2023-01-15T01:18:37;8.83;62.78
69225;DHT22;56333;51.306;17.056;2023-01-15T01:20:11;8.84;62.80
69225;DHT22;56333;51.306;17.056;2023-01-15T01:21:41;8.84;62.85
69225;DHT22;56333;51.306;17.056;2023-01-15T01:23:10;8.85;63.00
69225;DHT22;56333;51.306;17.056;2023-01-15T01:24:39;8.84;63.05
69225;DHT22;56333;51.306;17.056;2023-01-15T01:26:08;8.82;63.17
69225;DHT22;56333;51.306;17.056;2023-01-15T01:27:37;8.83;63.33
69225;DHT22;56333;51.306;17.056;2023-01-15T01:29:06;8.81;63.42
69225;DHT22;56333;51.306;17.056;2023-01-15T01:30:39;8.83;63.55
69225;DHT22;56333;51.306;17.056;2023-01-15T01:32:08;8.82;63.67
69225;DHT22;56333;51.306;17.056;2023-01-15T01:33:37;8.82;63.85
69225;DHT22;56333;51.306;17.056;2023-01-15T01:35:07;8.82;63.92
69225;DHT22;56333;51.306;17.056;2023-01-15T01:36:38;8.83;64.05
69225;DHT22;56333;51.306;17.056;2023-01-15T01:38:08;8.81;64.28
69225;DHT22;56333;51.306;17.056;2023-01-15T01:39:38;8.80;64.40
69225;DHT22;56333;51.306;17.056;2023-01-15T01:41:07;8.80;64.50
69225;DHT22;56333;51.306;17.056;2023-01-15T01:42:36;8.78;64.60
69225;DHT22;56333;51.306;17.056;2023-01-15T01:44:53;8.78;64.60
69225;DHT22;56333;51.306;17.056;2023-01-15T01:46:24;8.73;65.28
69225;DHT22;56333;51.306;17.056;2023-01-15T01:47:56;8.73;65.43
69225;DHT22;56333;51.306;17.056;2023-01-15T01:49:29;8.74;65.78
69225;DHT22;56333;51.306;17.056;2023-01-15T01:50:58;8.78;66.10
69225;DHT22;56333;51.306;17.056;2023-01-15T01:52:31;8.81;66.43
69225;DHT22;56333;51.306;17.056;2023-01-15T01:54:05;8.83;66.50
69225;DHT22;56333;51.306;17.056;2023-01-15T01:55:35;8.85;66.35
69225;DHT22;56333;51.306;17.056;2023-01-15T01:57:06;8.84;66.25
69225;DHT22;56333;51.306;17.056;2023-01-15T01:58:36;8.86;66.18
69225;DHT22;56333;51.306;17.056;2023-01-15T02:00:07;8.88;66.10
69225;DHT22;56333;51.306;17.056;2023-01-15T02:01:38;8.89;66.05
69225;DHT22;56333;51.306;17.056;2023-01-15T02:03:07;8.88;66.10
69225;DHT22;56333;51.306;17.056;2023-01-15T02:04:36;8.90;66.15
69225;DHT22;56333;51.306;17.056;2023-01-15T02:06:08;8.88;66.38
69225;DHT22;56333;51.306;17.056;2023-01-15T02:07:39;8.87;66.25
69225;DHT22;56333;51.306;17.056;2023-01-15T02:09:08;8.86;66.40
69225;DHT22;56333;51.306;17.056;2023-01-15T02:10:36;8.86;66.53
69225;DHT22;56333;51.306;17.056;2023-01-15T02:12:08;8.86;66.55
69225;DHT22;56333;51.306;17.056;2023-01-15T02:13:45;8.84;66.65
69225;DHT22;56333;51.306;17.056;2023-01-15T02:15:25;8.82;66.68
69225;DHT22;56333;51.306;17.056;2023-01-15T02:17:02;8.82;66.78
69225;DHT22;56333;51.306;17.056;2023-01-15T02:18:41;8.82;66.78
69225;DHT22;56333;51.306;17.056;2023-01-15T02:20:22;8.80;66.95
69225;DHT22;56333;51.306;17.056;2023-01-15T02:22:00;8.79;67.03
69225;DHT22;56333;51.306;17.056;2023-01-15T02:23:57;8.79;67.32
69225;DHT22;56333;51.306;17.056;2023-01-15T02:25:37;8.77;67.35
69225;DHT22;56333;51.306;17.056;2023-01-15T02:27:27;8.78;67.80
69225;DHT22;56333;51.306;17.056;2023-01-15T02:28:56;8.80;68.05
69225;DHT22;56333;51.306;17.056;2023-01-15T02:30:29;8.82;68.30
69225;DHT22;56333;51.306;17.056;2023-01-15T02:32:09;8.84;68.13
69225;DHT22;56333;51.306;17.056;2023-01-15T02:33:46;8.87;68.05
69225;DHT22;56333;51.306;17.056;2023-01-15T02:35:27;8.86;67.95
69225;DHT22;56333;51.306;17.056;2023-01-15T02:37:05;8.86;67.97
69225;DHT22;56333;51.306;17.056;2023-01-15T02:38:40;8.85;67.82
69225;DHT22;56333;51.306;17.056;2023-01-15T02:40:13;8.85;67.82
69225;DHT22;56333;51.306;17.056;2023-01-15T02:41:46;8.86;67.93
69225;DHT22;56333;51.306;17.056;2023-01-15T02:43:23;8.86;67.93
69225;DHT22;56333;51.306;17.056;2023-01-15T02:44:58;8.86;67.88
69225;DHT22;56333;51.306;17.056;2023-01-15T02:46:31;8.84;67.97
69225;DHT22;56333;51.306;17.056;2023-01-15T02:48:07;8.84;68.05
69225;DHT22;56333;51.306;17.056;2023-01-15T02:49:39;8.84;68.18
69225;DHT22;56333;51.306;17.056;2023-01-15T02:51:14;8.84;68.13
69225;DHT22;56333;51.306;17.056;2023-01-15T02:52:48;8.83;68.43
69225;DHT22;56333;51.306;17.056;2023-01-15T02:54:25;8.82;68.38
69225;DHT22;56333;51.306;17.056;2023-01-15T02:56:00;8.81;68.70
69225;DHT22;56333;51.306;17.056;2023-01-15T02:57:39;8.84;68.80
69225;DHT22;56333;51.306;17.056;2023-01-15T02:59:17;8.86;68.97
69225;DHT22;56333;51.306;17.056;2023-01-15T03:00:50;8.90;69.30
69225;DHT22;56333;51.306;17.056;2023-01-15T03:02:24;8.95;69.55
69225;DHT22;56333;51.306;17.056;2023-01-15T03:04:00;9.01;69.63
69225;DHT22;56333;51.306;17.056;2023-01-15T03:05:37;9.05;69.55
69225;DHT22;56333;51.306;17.056;2023-01-15T03:07:13;9.07;69.38
69225;DHT22;56333;51.306;17.056;2023-01-15T03:08:48;9.10;69.30
69225;DHT22;56333;51.306;17.056;2023-01-15T03:10:17;9.12;69.13
69225;DHT22;56333;51.306;17.056;2023-01-15T03:11:59;9.14;69.07
69225;DHT22;56333;51.306;17.056;2023-01-15T03:13:42;9.15;69.05
69225;DHT22;56333;51.306;17.056;2023-01-15T03:15:16;9.16;69.00
69225;DHT22;56333;51.306;17.056;2023-01-15T03:17:07;9.16;69.10
69225;DHT22;56333;51.306;17.056;2023-01-15T03:18:46;9.14;69.15
69225;DHT22;56333;51.306;17.056;2023-01-15T03:20:22;9.15;69.13
69225;DHT22;56333;51.306;17.056;2023-01-15T03:21:57;9.14;69.18
69225;DHT22;56333;51.306;17.056;2023-01-15T03:23:32;9.14;69.18
69225;DHT22;56333;51.306;17.056;2023-01-15T03:25:09;9.13;69.30
69225;DHT22;56333;51.306;17.056;2023-01-15T03:26:45;9.13;69.57
69225;DHT22;56333;51.306;17.056;2023-01-15T03:28:16;9.14;69.80
69225;DHT22;56333;51.306;17.056;2023-01-15T03:29:51;9.17;70.05
69225;DHT22;56333;51.306;17.056;2023-01-15T03:31:25;9.18;70.28
69225;DHT22;56333;51.306;17.056;2023-01-15T03:32:55;9.20;70.28
69225;DHT22;56333;51.306;17.056;2023-01-15T03:34:28;9.22;70.35
69225;DHT22;56333;51.306;17.056;2023-01-15T03:35:58;9.20;70.30
69225;DHT22;56333;51.306;17.056;2023-01-15T03:37:33;9.18;70.40
69225;DHT22;56333;51.306;17.056;2023-01-15T03:39:02;9.17;70.13
69225;DHT22;56333;51.306;17.056;2023-01-15T03:40:53;9.13;70.38
69225;DHT22;56333;51.306;17.056;2023-01-15T03:42:41;9.11;70.57
69225;DHT22;56333;51.306;17.056;2023-01-15T03:44:39;9.09;70.60
69225;DHT22;56333;51.306;17.056;2023-01-15T03:46:30;9.06;70.70
69225;DHT22;56333;51.306;17.056;2023-01-15T03:48:13;9.03;71.07
69225;DHT22;56333;51.306;17.056;2023-01-15T03:49:58;9.05;71.25
69225;DHT22;56333;51.306;17.056;2023-01-15T03:51:38;9.06;71.57
69225;DHT22;56333;51.306;17.056;2023-01-15T03:53:13;9.06;71.72
69225;DHT22;56333;51.306;17.056;2023-01-15T03:54:54;9.06;71.97
69225;DHT22;56333;51.306;17.056;2023-01-15T03:56:37;9.06;71.82
69225;DHT22;56333;51.306;17.056;2023-01-15T03:58:21;9.05;71.85
69225;DHT22;56333;51.306;17.056;2023-01-15T03:59:55;9.04;71.82
69225;DHT22;56333;51.306;17.056;2023-01-15T04:01:40;9.04;71.80
69225;DHT22;56333;51.306;17.056;2023-01-15T04:03:10;9.02;71.82
69225;DHT22;56333;51.306;17.056;2023-01-15T04:04:43;9.02;72.20
69225;DHT22;56333;51.306;17.056;2023-01-15T04:06:13;9.03;72.32
69225;DHT22;56333;51.306;17.056;2023-01-15T04:07:43;9.02;72.75
69225;DHT22;56333;51.306;17.056;2023-01-15T04:09:14;9.03;72.80
69225;DHT22;56333;51.306;17.056;2023-01-15T04:10:55;9.04;72.95
69225;DHT22;56333;51.306;17.056;2023-01-15T04:12:28;9.05;72.85
69225;DHT22;56333;51.306;17.056;2023-01-15T04:13:59;9.05;72.88
69225;DHT22;56333;51.306;17.056;2023-01-15T04:15:45;9.03;73.45
69225;DHT22;56333;51.306;17.056;2023-01-15T04:17:16;9.03;73.07
69225;DHT22;56333;51.306;17.056;2023-01-15T04:18:45;9.03;73.38
69225;DHT22;56333;51.306;17.056;2023-01-15T04:20:15;9.01;73.55
69225;DHT22;56333;51.306;17.056;2023-01-15T04:21:45;9.02;73.57
69225;DHT22;56333;51.306;17.056;2023-01-15T04:23:14;9.02;73.88
69225;DHT22;56333;51.306;17.056;2023-01-15T04:24:43;9.05;74.22
69225;DHT22;56333;51.306;17.056;2023-01-15T04:26:11;9.08;74.65
69225;DHT22;56333;51.306;17.056;2023-01-15T04:27:42;9.11;74.68
69225;DHT22;56333;51.306;17.056;2023-01-15T04:29:11;9.14;74.88
69225;DHT22;56333;51.306;17.056;2023-01-15T04:30:40;9.20;75.07
69225;DHT22;56333;51.306;17.056;2023-01-15T04:32:09;9.23;75.07
69225;DHT22;56333;51.306;17.056;2023-01-15T04:33:38;9.23;75.47
69225;DHT22;56333;51.306;17.056;2023-01-15T04:35:08;9.25;75.28
69225;DHT22;56333;51.306;17.056;2023-01-15T04:36:37;9.26;75.35
69225;DHT22;56333;51.306;17.056;2023-01-15T04:38:10;9.27;75.35
69225;DHT22;56333;51.306;17.056;2023-01-15T04:39:39;9.27;75.43
69225;DHT22;56333;51.306;17.056;2023-01-15T04:41:09;9.29;75.60
69225;DHT22;56333;51.306;17.056;2023-01-15T04:42:57;9.31;75.72
69225;DHT22;56333;51.306;17.056;2023-01-15T04:44:43;9.34;76.07
69225;DHT22;56333;51.306;17.056;2023-01-15T04:46:12;9.34;76.30
69225;DHT22;56333;51.306;17.056;2023-01-15T04:47:42;9.36;76.50
69225;DHT22;56333;51.306;17.056;2023-01-15T04:49:12;9.39;76.68
69225;DHT22;56333;51.306;17.056;2023-01-15T04:50:43;9.37;76.75
69225;DHT22;56333;51.306;17.056;2023-01-15T04:52:11;9.38;76.57
69225;DHT22;56333;51.306;17.056;2023-01-15T04:53:41;9.36;76.60
69225;DHT22;56333;51.306;17.056;2023-01-15T04:55:10;9.32;76.53
69225;DHT22;56333;51.306;17.056;2023-01-15T04:56:40;9.29;76.55
69225;DHT22;56333;51.306;17.056;2023-01-15T04:58:10;9.26;76.85
69225;DHT22;56333;51.306;17.056;2023-01-15T04:59:38;9.25;77.22
69225;DHT22;56333;51.306;17.056;2023-01-15T05:01:11;9.24;77.45
69225;DHT22;56333;51.306;17.056;2023-01-15T05:02:42;9.22;77.68
69225;DHT22;56333;51.306;17.056;2023-01-15T05:04:11;9.22;77.90
69225;DHT22;56333;51.306;17.056;2023-01-15T05:05:40;9.20;78.22
69225;DHT22;56333;51.306;17.056;2023-01-15T05:07:09;9.20;78.13
69225;DHT22;56333;51.306;17.056;2023-01-15T05:08:38;9.22;78.00
69225;DHT22;56333;51.306;17.056;2023-01-15T05:10:09;9.19;77.90
69225;DHT22;56333;51.306;17.056;2023-01-15T05:11:38;9.20;77.95
69225;DHT22;56333;51.306;17.056;2023-01-15T05:13:07;9.18;78.38
69225;DHT22;56333;51.306;17.056;2023-01-15T05:14:37;9.19;78.47
69225;DHT22;56333;51.306;17.056;2023-01-15T05:16:15;9.20;78.65
69225;DHT22;56333;51.306;17.056;2023-01-15T05:17:47;9.21;79.07
69225;DHT22;56333;51.306;17.056;2023-01-15T05:19:16;9.21;79.25
69225;DHT22;56333;51.306;17.056;2023-01-15T05:20:44;9.24;79.25
69225;DHT22;56333;51.306;17.056;2023-01-15T05:22:14;9.24;79.35
69225;DHT22;56333;51.306;17.056;2023-01-15T05:23:43;9.24;79.50
69225;DHT22;56333;51.306;17.056;2023-01-15T05:25:14;9.23;79.40
69225;DHT22;56333;51.306;17.056;2023-01-15T05:26:43;9.23;79.40
69225;DHT22;56333;51.306;17.056;2023-01-15T05:28:12;9.20;79.38
69225;DHT22;56333;51.306;17.056;2023-01-15T05:29:42;9.20;79.50
69225;DHT22;56333;51.306;17.056;2023-01-15T05:31:12;9.20;79.60
69225;DHT22;56333;51.306;17.056;2023-01-15T05:32:43;9.20;79.57
69225;DHT22;56333;51.306;17.056;2023-01-15T05:34:12;9.23;79.78
69225;DHT22;56333;51.306;17.056;2023-01-15T05:35:41;9.23;79.90
69225;DHT22;56333;51.306;17.056;2023-01-15T05:37:10;9.25;80.03
69225;DHT22;56333;51.306;17.056;2023-01-15T05:38:39;9.26;80.03
69225;DHT22;56333;51.306;17.056;2023-01-15T05:40:11;9.30;79.95
69225;DHT22;56333;51.306;17.056;2023-01-15T05:41:40;9.30;79.80
69225;DHT22;56333;51.306;17.056;2023-01-15T05:43:14;9.30;79.78
69225;DHT22;56333;51.306;17.056;2023-01-15T05:44:44;9.30;79.63
69225;DHT22;56333;51.306;17.056;2023-01-15T05:46:13;9.30;79.43
69225;DHT22;56333;51.306;17.056;2023-01-15T05:47:43;9.29;79.53
69225;DHT22;56333;51.306;17.056;2023-01-15T05:49:13;9.28;79.47
69225;DHT22;56333;51.306;17.056;2023-01-15T05:50:44;9.28;79.72
69225;DHT22;56333;51.306;17.056;2023-01-15T05:52:13;9.29;79.78
69225;DHT22;56333;51.306;17.056;2023-01-15T05:53:42;9.30;79.80
69225;DHT22;56333;51.306;17.056;2023-01-15T05:55:11;9.32;79.93
69225;DHT22;56333;51.306;17.056;2023-01-15T05:56:40;9.34;79.90
69225;DHT22;56333;51.306;17.056;2023-01-15T05:58:10;9.37;79.90
69225;DHT22;56333;51.306;17.056;2023-01-15T05:59:40;9.39;79.78
69225;DHT22;56333;51.306;17.056;2023-01-15T06:01:10;9.40;79.63
69225;DHT22;56333;51.306;17.056;2023-01-15T06:02:39;9.39;79.57
69225;DHT22;56333;51.306;17.056;2023-01-15T06:04:09;9.37;79.72
69225;DHT22;56333;51.306;17.056;2023-01-15T06:05:39;9.37;79.50
69225;DHT22;56333;51.306;17.056;2023-01-15T06:07:08;9.36;79.40
69225;DHT22;56333;51.306;17.056;2023-01-15T06:08:36;9.35;79.47
69225;DHT22;56333;51.306;17.056;2023-01-15T06:10:08;9.35;79.63
69225;DHT22;56333;51.306;17.056;2023-01-15T06:11:37;9.34;79.70
69225;DHT22;56333;51.306;17.056;2023-01-15T06:13:06;9.34;79.80
69225;DHT22;56333;51.306;17.056;2023-01-15T06:14:35;9.38;79.85
69225;DHT22;56333;51.306;17.056;2023-01-15T06:16:05;9.39;79.97
69225;DHT22;56333;51.306;17.056;2023-01-15T06:17:35;9.41;80.03
69225;DHT22;56333;51.306;17.056;2023-01-15T06:19:04;9.43;79.88
69225;DHT22;56333;51.306;17.056;2023-01-15T06:20:35;9.44;79.80
69225;DHT22;56333;51.306;17.056;2023-01-15T06:22:04;9.44;79.63
69225;DHT22;56333;51.306;17.056;2023-01-15T06:23:33;9.43;79.57
69225;DHT22;56333;51.306;17.056;2023-01-15T06:25:03;9.40;79.57
69225;DHT22;56333;51.306;17.056;2023-01-15T06:26:33;9.38;79.45
69225;DHT22;56333;51.306;17.056;2023-01-15T06:28:04;9.35;79.43
69225;DHT22;56333;51.306;17.056;2023-01-15T06:29:34;9.37;79.60
69225;DHT22;56333;51.306;17.056;2023-01-15T06:31:06;9.36;79.90
69225;DHT22;56333;51.306;17.056;2023-01-15T06:32:37;9.37;80.05
69225;DHT22;56333;51.306;17.056;2023-01-15T06:34:06;9.36;80.30
69225;DHT22;56333;51.306;17.056;2023-01-15T06:35:35;9.37;80.18
69225;DHT22;56333;51.306;17.056;2023-01-15T06:37:05;9.39;80.25
69225;DHT22;56333;51.306;17.056;2023-01-15T06:38:34;9.36;80.22
69225;DHT22;56333;51.306;17.056;2023-01-15T06:40:04;9.37;80.10
69225;DHT22;56333;51.306;17.056;2023-01-15T06:41:36;9.34;80.18
69225;DHT22;56333;51.306;17.056;2023-01-15T06:43:23;9.34;80.18
69225;DHT22;56333;51.306;17.056;2023-01-15T06:45:20;9.31;80.18
69225;DHT22;56333;51.306;17.056;2023-01-15T06:47:19;9.33;80.28
69225;DHT22;56333;51.306;17.056;2023-01-15T06:48:47;9.34;80.35
69225;DHT22;56333;51.306;17.056;2023-01-15T06:50:17;9.37;80.53
69225;DHT22;56333;51.306;17.056;2023-01-15T06:51:47;9.38;80.72
69225;DHT22;56333;51.306;17.056;2023-01-15T06:53:15;9.39;80.75
69225;DHT22;56333;51.306;17.056;2023-01-15T06:54:44;9.42;80.63
69225;DHT22;56333;51.306;17.056;2023-01-15T06:56:13;9.43;80.55
69225;DHT22;56333;51.306;17.056;2023-01-15T06:57:43;9.43;80.55
69225;DHT22;56333;51.306;17.056;2023-01-15T06:59:12;9.43;80.50
69225;DHT22;56333;51.306;17.056;2023-01-15T07:00:42;9.44;80.38
69225;DHT22;56333;51.306;17.056;2023-01-15T07:02:18;9.43;80.38
69225;DHT22;56333;51.306;17.056;2023-01-15T07:03:48;9.41;80.55
69225;DHT22;56333;51.306;17.056;2023-01-15T07:05:17;9.43;80.60
69225;DHT22;56333;51.306;17.056;2023-01-15T07:06:46;9.45;80.57
69225;DHT22;56333;51.306;17.056;2023-01-15T07:08:15;9.47;80.65
69225;DHT22;56333;51.306;17.056;2023-01-15T07:09:44;9.49;80.75
69225;DHT22;56333;51.306;17.056;2023-01-15T07:11:13;9.51;80.82
69225;DHT22;56333;51.306;17.056;2023-01-15T07:12:42;9.53;80.72
69225;DHT22;56333;51.306;17.056;2023-01-15T07:14:10;9.52;80.70
69225;DHT22;56333;51.306;17.056;2023-01-15T07:15:40;9.52;80.68
69225;DHT22;56333;51.306;17.056;2023-01-15T07:17:09;9.55;80.53
69225;DHT22;56333;51.306;17.056;2023-01-15T07:18:38;9.54;80.40
69225;DHT22;56333;51.306;17.056;2023-01-15T07:20:10;9.54;80.32
69225;DHT22;56333;51.306;17.056;2023-01-15T07:21:39;9.53;80.40
69225;DHT22;56333;51.306;17.056;2023-01-15T07:23:08;9.56;80.50
69225;DHT22;56333;51.306;17.056;2023-01-15T07:24:37;9.58;80.55
69225;DHT22;56333;51.306;17.056;2023-01-15T07:26:06;9.61;80.63
69225;DHT22;56333;51.306;17.056;2023-01-15T07:27:35;9.63;80.65
69225;DHT22;56333;51.306;17.056;2023-01-15T07:29:04;9.65;80.63
69225;DHT22;56333;51.306;17.056;2023-01-15T07:30:32;9.68;80.70
69225;DHT22;56333;51.306;17.056;2023-01-15T07:32:02;9.69;80.53
69225;DHT22;56333;51.306;17.056;2023-01-15T07:33:31;9.70;80.35
69225;DHT22;56333;51.306;17.056;2023-01-15T07:35:00;9.72;80.25
69225;DHT22;56333;51.306;17.056;2023-01-15T07:36:29;9.73;80.22
69225;DHT22;56333;51.306;17.056;2023-01-15T07:37:58;9.70;80.10
69225;DHT22;56333;51.306;17.056;2023-01-15T07:39:28;9.73;80.13
69225;DHT22;56333;51.306;17.056;2023-01-15T07:40:57;9.69;80.05
69225;DHT22;56333;51.306;17.056;2023-01-15T07:42:44;9.71;80.10
69225;DHT22;56333;51.306;17.056;2023-01-15T07:44:30;9.71;80.25
69225;DHT22;56333;51.306;17.056;2023-01-15T07:46:17;9.72;80.43
69225;DHT22;56333;51.306;17.056;2023-01-15T07:48:06;9.73;80.40
69225;DHT22;56333;51.306;17.056;2023-01-15T07:49:55;9.74;80.30
69225;DHT22;56333;51.306;17.056;2023-01-15T07:51:24;9.76;80.15
69225;DHT22;56333;51.306;17.056;2023-01-15T07:52:53;9.77;79.97
69225;DHT22;56333;51.306;17.056;2023-01-15T07:54:22;9.77;79.70
69225;DHT22;56333;51.306;17.056;2023-01-15T07:55:52;9.76;79.63
69225;DHT22;56333;51.306;17.056;2023-01-15T07:57:21;9.76;79.60
69225;DHT22;56333;51.306;17.056;2023-01-15T07:58:50;9.75;79.60
69225;DHT22;56333;51.306;17.056;2023-01-15T08:00:22;9.74;79.68
69225;DHT22;56333;51.306;17.056;2023-01-15T08:01:51;9.77;79.82
69225;DHT22;56333;51.306;17.056;2023-01-15T08:03:20;9.80;79.90
69225;DHT22;56333;51.306;17.056;2023-01-15T08:04:48;9.82;79.93
69225;DHT22;56333;51.306;17.056;2023-01-15T08:06:18;9.82;79.80
69225;DHT22;56333;51.306;17.056;2023-01-15T08:07:46;9.82;79.60
69225;DHT22;56333;51.306;17.056;2023-01-15T08:09:15;9.81;79.50
69225;DHT22;56333;51.306;17.056;2023-01-15T08:10:44;9.81;79.38
69225;DHT22;56333;51.306;17.056;2023-01-15T08:12:31;9.77;79.18
69225;DHT22;56333;51.306;17.056;2023-01-15T08:14:18;9.73;79.10
69225;DHT22;56333;51.306;17.056;2023-01-15T08:16:05;9.73;79.13
69225;DHT22;56333;51.306;17.056;2023-01-15T08:17:35;9.75;79.10
69225;DHT22;56333;51.306;17.056;2023-01-15T08:19:06;9.76;79.15
69225;DHT22;56333;51.306;17.056;2023-01-15T08:20:35;9.78;79.25
69225;DHT22;56333;51.306;17.056;2023-01-15T08:22:04;9.81;79.20
69225;DHT22;56333;51.306;17.056;2023-01-15T08:23:34;9.82;78.93
69225;DHT22;56333;51.306;17.056;2023-01-15T08:25:04;9.82;78.80
69225;DHT22;56333;51.306;17.056;2023-01-15T08:26:35;9.81;78.57
69225;DHT22;56333;51.306;17.056;2023-01-15T08:28:04;9.81;78.55
69225;DHT22;56333;51.306;17.056;2023-01-15T08:29:33;9.79;78.38
69225;DHT22;56333;51.306;17.056;2023-01-15T08:31:01;9.78;78.13
69225;DHT22;56333;51.306;17.056;2023-01-15T08:32:33;9.75;78.10
69225;DHT22;56333;51.306;17.056;2023-01-15T08:34:02;9.75;78.10
69225;DHT22;56333;51.306;17.056;2023-01-15T08:35:31;9.73;78.13
69225;DHT22;56333;51.306;17.056;2023-01-15T08:37:00;9.73;78.13
69225;DHT22;56333;51.306;17.056;2023-01-15T08:38:30;9.74;78.13
69225;DHT22;56333;51.306;17.056;2023-01-15T08:39:59;9.76;78.20
69225;DHT22;56333;51.306;17.056;2023-01-15T08:41:28;9.79;78.00
69225;DHT22;56333;51.306;17.056;2023-01-15T08:42:58;9.81;77.75
69225;DHT22;56333;51.306;17.056;2023-01-15T08:44:27;9.81;77.47
69225;DHT22;56333;51.306;17.056;2023-01-15T08:45:58;9.82;77.25
69225;DHT22;56333;51.306;17.056;2023-01-15T08:47:29;9.84;77.03
69225;DHT22;56333;51.306;17.056;2023-01-15T08:48:58;9.82;76.72
69225;DHT22;56333;51.306;17.056;2023-01-15T08:50:27;9.80;76.78
69225;DHT22;56333;51.306;17.056;2023-01-15T08:51:56;9.81;76.70
69225;DHT22;56333;51.306;17.056;2023-01-15T08:53:26;9.82;76.55
69225;DHT22;56333;51.306;17.056;2023-01-15T08:54:55;9.80;76.60
69225;DHT22;56333;51.306;17.056;2023-01-15T08:56:24;9.83;76.63
69225;DHT22;56333;51.306;17.056;2023-01-15T08:57:53;9.84;76.70
69225;DHT22;56333;51.306;17.056;2023-01-15T08:59:23;9.87;76.82
69225;DHT22;56333;51.306;17.056;2023-01-15T09:00:52;9.91;76.80
69225;DHT22;56333;51.306;17.056;2023-01-15T09:02:20;9.92;76.60
69225;DHT22;56333;51.306;17.056;2023-01-15T09:03:51;9.95;76.40
69225;DHT22;56333;51.306;17.056;2023-01-15T09:05:20;9.97;75.90
69225;DHT22;56333;51.306;17.056;2023-01-15T09:06:51;9.98;75.78
69225;DHT22;56333;51.306;17.056;2023-01-15T09:08:20;9.98;75.60
69225;DHT22;56333;51.306;17.056;2023-01-15T09:09:49;9.98;75.55
69225;DHT22;56333;51.306;17.056;2023-01-15T09:11:18;9.99;75.55
69225;DHT22;56333;51.306;17.056;2023-01-15T09:12:47;10.01;75.28
69225;DHT22;56333;51.306;17.056;2023-01-15T09:14:16;10.01;75.05
69225;DHT22;56333;51.306;17.056;2023-01-15T09:15:44;10.01;75.05
69225;DHT22;56333;51.306;17.056;2023-01-15T09:17:14;10.02;75.20
69225;DHT22;56333;51.306;17.056;2023-01-15T09:18:42;10.05;75.25
69225;DHT22;56333;51.306;17.056;2023-01-15T09:20:13;10.07;75.32
69225;DHT22;56333;51.306;17.056;2023-01-15T09:21:42;10.10;75.32
69225;DHT22;56333;51.306;17.056;2023-01-15T09:23:11;10.11;74.97
69225;DHT22;56333;51.306;17.056;2023-01-15T09:24:40;10.13;74.90
69225;DHT22;56333;51.306;17.056;2023-01-15T09:26:27;10.13;74.68
69225;DHT22;56333;51.306;17.056;2023-01-15T09:27:57;10.15;74.53
69225;DHT22;56333;51.306;17.056;2023-01-15T09:29:26;10.15;74.28
69225;DHT22;56333;51.306;17.056;2023-01-15T09:30:56;10.16;74.22
69225;DHT22;56333;51.306;17.056;2023-01-15T09:32:26;10.18;74.22
69225;DHT22;56333;51.306;17.056;2023-01-15T09:33:56;10.19;74.13
69225;DHT22;56333;51.306;17.056;2023-01-15T09:35:25;10.19;74.05
69225;DHT22;56333;51.306;17.056;2023-01-15T09:36:54;10.19;73.97
69225;DHT22;56333;51.306;17.056;2023-01-15T09:38:23;10.21;73.88
69225;DHT22;56333;51.306;17.056;2023-01-15T09:39:52;10.21;74.05
69225;DHT22;56333;51.306;17.056;2023-01-15T09:41:21;10.24;74.15
69225;DHT22;56333;51.306;17.056;2023-01-15T09:43:26;10.29;74.25